createdAt,value
2022-11-17T00:02:46.465Z,95901.63
2022-11-17T00:06:49.378Z,95901.25
2022-11-17T00:10:52.035Z,95903.50
2022-11-17T00:14:55.067Z,95896.88
2022-11-17T00:19:15.298Z,95900.66
2022-11-17T00:23:17.981Z,95895.06
2022-11-17T00:27:20.708Z,95902.72
2022-11-17T00:31:43.590Z,95899.63
2022-11-17T00:35:51.655Z,95894.84
2022-11-17T00:40:00.362Z,95887.69
2022-11-17T00:44:03.863Z,95883.38
2022-11-17T00:48:08.086Z,95883.16
2022-11-17T00:52:11.608Z,95876.34
2022-11-17T00:56:14.371Z,95880.31
2022-11-17T01:00:17.233Z,95883.19
2022-11-17T01:04:21.482Z,95893.09
2022-11-17T01:08:24.202Z,95889.16
2022-11-17T01:12:26.915Z,95893.50
2022-11-17T01:16:31.302Z,95898.78
2022-11-17T01:20:35.711Z,95891.41
2022-11-17T01:24:38.343Z,95880.69
2022-11-17T01:28:42.162Z,95876.34
2022-11-17T01:32:44.873Z,95876.34
2022-11-17T01:37:06.281Z,95870.19
2022-11-17T01:41:15.175Z,95862.34
2022-11-17T01:45:23.179Z,95855.56
2022-11-17T01:49:30.132Z,95844.94
2022-11-17T01:53:35.544Z,95843.22
2022-11-17T01:57:43.947Z,95841.06
2022-11-17T02:01:56.569Z,95839.66
2022-11-17T02:06:04.659Z,95842.34
2022-11-17T02:10:09.426Z,95836.00
2022-11-17T02:14:12.294Z,95836.81
2022-11-17T02:18:16.478Z,95841.97
2022-11-17T02:22:39.739Z,95830.84
2022-11-17T02:27:08.938Z,95830.44
2022-11-17T02:31:29.815Z,95832.84
2022-11-17T02:35:41.592Z,95812.25
2022-11-17T02:39:51.017Z,95800.69
2022-11-17T02:44:05.362Z,95795.31
2022-11-17T02:48:13.242Z,95801.53
2022-11-17T02:52:18.391Z,95798.47
2022-11-17T02:56:21.178Z,95786.47
2022-11-17T03:00:24.042Z,95767.34
2022-11-17T03:04:33.993Z,95766.53
2022-11-17T03:08:59.614Z,95779.50
2022-11-17T03:13:05.679Z,95768.16
2022-11-17T03:17:15.549Z,95759.88
2022-11-17T03:21:23.712Z,95753.50
2022-11-17T03:25:29.657Z,95753.72
2022-11-17T03:29:35.511Z,95756.19
2022-11-17T03:33:40.765Z,95741.00
2022-11-17T03:37:51.918Z,95746.56
2022-11-17T03:41:58.968Z,95757.06
2022-11-17T03:46:06.844Z,95753.94
2022-11-17T03:50:15.381Z,95744.47
2022-11-17T03:54:19.690Z,95737.25
2022-11-17T03:58:26.578Z,95720.56
2022-11-17T04:02:29.349Z,95720.56
2022-11-17T04:06:32.134Z,95722.22
2022-11-17T04:10:56.529Z,95708.06
2022-11-17T04:15:17.050Z,95706.81
2022-11-17T04:19:19.829Z,95705.19
2022-11-17T04:23:23.075Z,95692.00
2022-11-17T04:27:41.045Z,95699.00
2022-11-17T04:31:43.735Z,95701.22
2022-11-17T04:35:50.749Z,95691.78
2022-11-17T04:39:53.437Z,95700.41
2022-11-17T04:43:57.696Z,95677.44
2022-11-17T04:48:00.373Z,95678.75
2022-11-17T04:52:03.307Z,95661.16
2022-11-17T04:56:06.675Z,95649.50
2022-11-17T05:00:12.243Z,95646.84
2022-11-17T05:04:36.594Z,95631.47
2022-11-17T05:08:40.116Z,95637.66
2022-11-17T05:13:00.138Z,95636.25
2022-11-17T05:17:10.975Z,95640.81
2022-11-17T05:21:14.353Z,95642.41
2022-11-17T05:25:18.679Z,95634.25
2022-11-17T05:29:23.333Z,95641.47
2022-11-17T05:33:27.413Z,95640.88
2022-11-17T05:37:30.128Z,95649.75
2022-11-17T05:41:33.473Z,95658.38
2022-11-17T05:45:36.161Z,95652.41
2022-11-17T05:49:40.212Z,95662.66
2022-11-17T05:53:43.064Z,95676.66
2022-11-17T05:57:46.709Z,95676.91
2022-11-17T06:01:54.214Z,95682.03
2022-11-17T06:05:58.539Z,95695.78
2022-11-17T06:10:01.243Z,95701.44
2022-11-17T06:14:03.897Z,95702.72
2022-11-17T06:18:12.682Z,95701.22
2022-11-17T06:22:16.812Z,95700.63
2022-11-17T06:26:19.625Z,95707.16
2022-11-17T06:30:22.468Z,95689.31
2022-11-17T06:34:26.652Z,95724.75
2022-11-17T06:38:31.509Z,95694.69
2022-11-17T06:43:06.131Z,95697.13
2022-11-17T06:47:08.802Z,95711.72
2022-11-17T06:51:11.532Z,95717.84
2022-11-17T06:55:15.885Z,95727.88
2022-11-17T06:59:18.589Z,95710.50
2022-11-17T07:03:21.261Z,95705.84
2022-11-17T07:07:24.061Z,95695.09
2022-11-17T07:11:28.119Z,95674.63
2022-11-17T07:15:31.116Z,95683.84
2022-11-17T07:19:33.837Z,95709.97
2022-11-17T07:23:37.557Z,95700.97
2022-11-17T07:27:41.568Z,95683.84
2022-11-17T07:31:44.482Z,95672.06
2022-11-17T07:35:47.209Z,95665.09
2022-11-17T07:39:49.878Z,95687.34
2022-11-17T07:43:53.914Z,95695.53
2022-11-17T07:47:57.273Z,95714.09
2022-11-17T07:52:00.056Z,95738.56
2022-11-17T07:56:04.974Z,95732.06
2022-11-17T08:00:10.454Z,95723.00
2022-11-17T08:04:13.123Z,95739.09
2022-11-17T08:08:15.830Z,95705.03
2022-11-17T08:12:18.456Z,95714.84
2022-11-17T08:16:22.509Z,95706.72
2022-11-17T08:20:26.582Z,95720.19
2022-11-17T08:24:29.273Z,95711.56
2022-11-17T08:28:33.311Z,95711.22
2022-11-17T08:32:37.733Z,95716.56
2022-11-17T08:36:41.140Z,95711.22
2022-11-17T08:40:43.913Z,95715.63
2022-11-17T08:44:46.600Z,95722.13
2022-11-17T08:48:55.549Z,95722.34
2022-11-17T08:52:59.810Z,95727.13
2022-11-17T08:57:02.549Z,95711.03
2022-11-17T09:01:08.554Z,95720.72
2022-11-17T09:05:12.756Z,95741.06
2022-11-17T09:09:15.499Z,95719.94
2022-11-17T09:13:18.925Z,95721.13
2022-11-17T09:17:21.783Z,95728.84
2022-11-17T09:21:27.260Z,95724.91
2022-11-17T09:25:30.242Z,95710.03
2022-11-17T09:29:32.940Z,95696.59
2022-11-17T09:33:35.673Z,95699.88
2022-11-17T09:37:39.741Z,95689.38
2022-11-17T09:41:47.715Z,95683.13
2022-11-17T09:45:50.875Z,95699.59
2022-11-17T09:49:59.475Z,95714.00
2022-11-17T09:54:12.025Z,95718.66
2022-11-17T09:58:23.964Z,95687.22
2022-11-17T10:02:26.717Z,95682.50
2022-11-17T10:06:31.929Z,95669.91
2022-11-17T10:10:40.656Z,95671.38
2022-11-17T10:14:43.313Z,95675.63
2022-11-17T10:18:46.304Z,95688.34
2022-11-17T10:22:49.645Z,95696.69
2022-11-17T10:26:53.774Z,95719.25
2022-11-17T10:31:00.167Z,95730.34
2022-11-17T10:35:16.286Z,95713.16
2022-11-17T10:39:38.658Z,95728.59
2022-11-17T10:43:58.572Z,95722.63
2022-11-17T10:48:17.793Z,95728.59
2022-11-17T10:52:24.590Z,95710.00
2022-11-17T10:56:27.577Z,95696.53
2022-11-17T11:00:34.886Z,95681.94
2022-11-17T11:04:39.575Z,95694.81
2022-11-17T11:08:51.565Z,95702.38
2022-11-17T11:12:59.859Z,95700.88
2022-11-17T11:17:11.868Z,95698.38
2022-11-17T11:21:23.121Z,95692.34
2022-11-17T11:25:35.628Z,95664.78
2022-11-17T11:29:50.924Z,95678.66
2022-11-17T11:34:07.843Z,95668.06
2022-11-17T11:38:33.186Z,95649.06
2022-11-17T11:42:48.345Z,95638.69
2022-11-17T11:47:00.859Z,95635.19
2022-11-17T11:51:10.910Z,95644.22
2022-11-17T11:55:20.392Z,95643.72
2022-11-17T11:59:34.788Z,95650.25
2022-11-17T12:03:47.433Z,95639.75
2022-11-17T12:07:54.052Z,95633.94
2022-11-17T12:12:04.617Z,95634.69
2022-11-17T12:16:20.411Z,95638.16
2022-11-17T12:21:01.740Z,95654.66
2022-11-17T12:25:16.938Z,95640.34
2022-11-17T12:29:30.785Z,95654.69
2022-11-17T12:34:16.807Z,95638.47
2022-11-17T12:38:44.129Z,95633.69
2022-11-17T12:43:21.570Z,95616.09
2022-11-17T12:47:26.197Z,95621.59
2022-11-17T12:51:40.357Z,95625.44
2022-11-17T12:56:08.751Z,95638.78
2022-11-17T13:00:18.714Z,95646.09
2022-11-17T13:04:27.686Z,95646.81
2022-11-17T13:08:30.391Z,95647.56
2022-11-17T13:12:34.926Z,95646.03
2022-11-17T13:16:45.533Z,95650.47
2022-11-17T13:20:49.675Z,95650.16
2022-11-17T13:24:53.834Z,95654.06
2022-11-17T13:29:07.129Z,95657.00
2022-11-17T13:33:17.357Z,95659.38
2022-11-17T13:37:22.692Z,95652.81
2022-11-17T13:41:26.490Z,95649.81
2022-11-17T13:45:29.658Z,95649.78
2022-11-17T13:49:35.390Z,95655.16
2022-11-17T13:53:41.828Z,95666.31
2022-11-17T13:57:56.113Z,95661.78
2022-11-17T14:02:24.659Z,95663.53
2022-11-17T14:06:59.320Z,95657.00
2022-11-17T14:11:08.299Z,95654.00
2022-11-17T14:15:23.851Z,95662.28
2022-11-17T14:19:37.975Z,95670.66
2022-11-17T14:23:43.032Z,95658.78
2022-11-17T14:27:49.189Z,95662.34
2022-11-17T14:31:57.170Z,95654.19
2022-11-17T14:36:00.816Z,95668.53
2022-11-17T14:40:07.549Z,95656.47
2022-11-17T14:44:13.084Z,95657.06
2022-11-17T14:48:19.294Z,95675.25
2022-11-17T14:52:22.416Z,95668.38
2022-11-17T14:56:26.847Z,95655.81
2022-11-17T15:00:29.536Z,95662.31
2022-11-17T15:04:49.962Z,95655.59
2022-11-17T15:08:57.281Z,95675.47
2022-11-17T15:13:01.649Z,95666.88
2022-11-17T15:17:05.117Z,95681.00
2022-11-17T15:21:11.281Z,95681.50
2022-11-17T15:25:14.616Z,95689.38
2022-11-17T15:29:18.982Z,95692.94
2022-11-17T15:33:21.710Z,95680.03
2022-11-17T15:37:24.399Z,95681.38
2022-11-17T15:41:31.427Z,95675.34
2022-11-17T15:45:37.804Z,95675.72
2022-11-17T15:49:40.508Z,95678.16
2022-11-17T15:53:46.314Z,95678.44
2022-11-17T15:57:49.023Z,95670.75
2022-11-17T16:01:53.115Z,95663.66
2022-11-17T16:05:55.850Z,95670.88
2022-11-17T16:09:58.545Z,95675.13
2022-11-17T16:14:02.581Z,95671.75
2022-11-17T16:18:07.355Z,95680.09
2022-11-17T16:22:10.056Z,95670.09
2022-11-17T16:26:14.463Z,95678.63
2022-11-17T16:30:17.967Z,95684.13
2022-11-17T16:34:22.572Z,95680.50
2022-11-17T16:38:25.322Z,95672.56
2022-11-17T16:42:28.464Z,95692.41
2022-11-17T16:46:32.475Z,95690.31
2022-11-17T16:50:39.012Z,95681.78
2022-11-17T16:54:42.030Z,95672.94
2022-11-17T16:58:44.732Z,95675.03
2022-11-17T17:02:49.986Z,95675.94
2022-11-17T17:06:54.215Z,95673.00
2022-11-17T17:10:56.947Z,95684.84
2022-11-17T17:14:59.805Z,95678.03
2022-11-17T17:19:05.370Z,95680.63
2022-11-17T17:23:10.024Z,95689.38
2022-11-17T17:27:12.805Z,95680.13
2022-11-17T17:31:21.286Z,95694.63
2022-11-17T17:35:24.794Z,95679.66
2022-11-17T17:39:29.129Z,95690.06
2022-11-17T17:43:31.960Z,95677.34
2022-11-17T17:47:34.679Z,95671.50
2022-11-17T17:51:40.226Z,95663.34
2022-11-17T17:55:44.449Z,95662.38
2022-11-17T17:59:47.129Z,95651.28
2022-11-17T18:03:51.356Z,95651.50
2022-11-17T18:07:54.032Z,95658.88
2022-11-17T18:11:58.588Z,95655.69
2022-11-17T18:16:04.379Z,95651.25
2022-11-17T18:20:08.370Z,95660.69
2022-11-17T18:24:11.906Z,95666.91
2022-11-17T18:28:15.916Z,95677.72
2022-11-17T18:32:18.629Z,95671.41
2022-11-17T18:36:21.999Z,95673.84
2022-11-17T18:40:24.662Z,95674.53
2022-11-17T18:44:30.721Z,95686.66
2022-11-17T18:48:34.032Z,95682.56
2022-11-17T18:52:37.049Z,95666.72
2022-11-17T18:56:39.947Z,95656.53
2022-11-17T19:00:44.010Z,95655.72
2022-11-17T19:04:46.772Z,95656.75
2022-11-17T19:08:50.211Z,95653.03
2022-11-17T19:12:52.890Z,95657.81
2022-11-17T19:16:56.915Z,95649.78
2022-11-17T19:21:04.572Z,95650.00
2022-11-17T19:25:08.094Z,95659.22
2022-11-17T19:29:17.268Z,95659.56
2022-11-17T19:33:21.797Z,95658.75
2022-11-17T19:37:24.432Z,95664.56
2022-11-17T19:41:28.705Z,95678.56
2022-11-17T19:45:31.419Z,95679.16
2022-11-17T19:49:35.410Z,95684.75
2022-11-17T19:53:39.420Z,95687.56
2022-11-17T19:57:42.161Z,95680.34
2022-11-17T20:01:45.381Z,95676.16
2022-11-17T20:05:49.532Z,95666.38
2022-11-17T20:09:52.201Z,95662.06
2022-11-17T20:13:55.359Z,95663.47
2022-11-17T20:17:58.044Z,95668.34
2022-11-17T20:22:02.105Z,95676.78
2022-11-17T20:26:06.325Z,95685.66
2022-11-17T20:30:14.952Z,95686.47
2022-11-17T20:34:18.416Z,95684.00
2022-11-17T20:38:22.527Z,95678.06
2022-11-17T20:42:25.283Z,95674.78
2022-11-17T20:46:28.215Z,95686.69
2022-11-17T20:50:31.984Z,95683.56
2022-11-17T20:54:36.447Z,95678.41
2022-11-17T20:58:39.204Z,95679.44
2022-11-17T21:02:41.883Z,95685.03
2022-11-17T21:06:44.547Z,95682.84
2022-11-17T21:10:48.779Z,95678.28
2022-11-17T21:14:51.406Z,95678.06
2022-11-17T21:18:54.108Z,95675.59
2022-11-17T21:22:56.997Z,95681.78
2022-11-17T21:27:01.024Z,95679.09
2022-11-17T21:31:07.438Z,95679.34
2022-11-17T21:35:10.305Z,95685.28
2022-11-17T21:39:18.672Z,95682.63
2022-11-17T21:43:22.901Z,95693.22
2022-11-17T21:47:25.551Z,95686.25
2022-11-17T21:51:29.885Z,95689.59
2022-11-17T21:55:32.566Z,95677.09
2022-11-17T21:59:36.824Z,95692.28
2022-11-17T22:03:40.523Z,95703.00
2022-11-17T22:07:43.332Z,95695.09
2022-11-17T22:11:45.988Z,95701.06
2022-11-17T22:15:50.229Z,95695.19
2022-11-17T22:19:52.895Z,95713.16
2022-11-17T22:23:55.668Z,95697.66
2022-11-17T22:27:58.297Z,95706.88
2022-11-17T22:32:02.380Z,95701.41
2022-11-17T22:36:05.432Z,95710.94
2022-11-17T22:40:08.793Z,95721.53
2022-11-17T22:44:14.429Z,95740.69
2022-11-17T22:48:18.423Z,95743.25
2022-11-17T22:52:21.072Z,95759.38
2022-11-17T22:56:23.721Z,95761.00
2022-11-17T23:00:26.801Z,95757.03
2022-11-17T23:04:31.016Z,95760.09
2022-11-17T23:08:33.938Z,95761.72
2022-11-17T23:12:36.746Z,95763.38
2022-11-17T23:16:39.802Z,95761.38
2022-11-17T23:20:43.805Z,95734.72
2022-11-17T23:24:46.485Z,95725.41
2022-11-17T23:28:49.475Z,95743.00
2022-11-17T23:32:54.144Z,95734.84
2022-11-17T23:37:03.333Z,95728.31
2022-11-17T23:41:08.795Z,95731.56
2022-11-17T23:45:12.789Z,95714.66
2022-11-17T23:49:15.623Z,95714.06
2022-11-17T23:53:19.821Z,95712.69
2022-11-17T23:57:22.545Z,95723.09
